Time,TemperatureF,DewpointF,PressureIn,WindDirection,WindDirectionDegrees,WindSpeedMPH,WindSpeedGustMPH,Humidity,HourlyPrecipIn,Conditions,Clouds,dailyrainin,SoftwareType,DateUTC
2013-02-20 00:03:00,10.1,-3.0,30.17,NNE,22,0.0,-999.0,55,-99.99,,,0.00,weatherlink.com 1.10,2013-02-20 07:03:00,
2013-02-20 00:18:00,9.4,-3.0,30.16,NNE,22,0.0,-999.0,57,-99.99,,,0.00,weatherlink.com 1.10,2013-02-20 07:18:00,
2013-02-20 00:33:00,8.9,-3.0,30.16,NNE,22,0.0,-999.0,58,-99.99,,,0.00,weatherlink.com 1.10,2013-02-20 07:33:00,
2013-02-20 00:48:00,8.3,-3.0,30.15,NNE,22,0.0,-999.0,59,-99.99,,,0.00,weatherlink.com 1.10,2013-02-20 07:48:00,
2013-02-20 01:17:00,7.1,-4.0,30.13,NNE,22,0.0,-999.0,61,-99.99,,,0.00,weatherlink.com 1.10,2013-02-20 08:17:00,
2013-02-20 01:32:00,6.7,-4.0,30.12,NNE,22,0.0,-999.0,63,-99.99,,,0.00,weatherlink.com 1.10,2013-02-20 08:32:00,
2013-02-20 01:47:00,6.6,-4.0,30.12,NNE,22,0.0,-999.0,63,-99.99,,,0.00,weatherlink.com 1.10,2013-02-20 08:47:00,
2013-02-20 02:02:00,6.4,-4.0,30.11,NNE,22,0.0,-999.0,63,-99.99,,,0.00,weatherlink.com 1.10,2013-02-20 09:02:00,
2013-02-20 02:17:00,6.1,-4.0,30.10,NNE,22,0.0,-999.0,64,-99.99,,,0.00,weatherlink.com 1.10,2013-02-20 09:17:00,
2013-02-20 02:32:00,6.0,-4.0,30.09,NNE,22,0.0,-999.0,65,-99.99,,,0.00,weatherlink.com 1.10,2013-02-20 09:32:00,
2013-02-20 02:47:00,5.9,-4.0,30.08,NNE,22,0.0,-999.0,65,-99.99,,,0.00,weatherlink.com 1.10,2013-02-20 09:47:00,
2013-02-20 03:03:00,5.9,-3.0,30.08,NNE,22,0.0,-999.0,66,-99.99,,,0.00,weatherlink.com 1.10,2013-02-20 10:03:00,
2013-02-20 03:18:00,5.8,-3.0,30.07,NNE,22,0.0,-999.0,66,-99.99,,,0.00,weatherlink.com 1.10,2013-02-20 10:18:00,
2013-02-20 03:33:00,5.7,-3.0,30.06,NNE,22,0.0,-999.0,66,-99.99,,,0.00,weatherlink.com 1.10,2013-02-20 10:33:00,
2013-02-20 03:48:00,5.4,-4.0,30.06,NNE,22,0.0,-999.0,66,-99.99,,,0.00,weatherlink.com 1.10,2013-02-20 10:48:00,
2013-02-20 04:02:00,5.1,-4.0,30.05,NNE,22,1.0,-999.0,67,-99.99,,,0.00,weatherlink.com 1.10,2013-02-20 11:02:00,
2013-02-20 04:17:00,5.5,-3.0,30.05,NNE,22,0.0,-999.0,68,-99.99,,,0.00,weatherlink.com 1.10,2013-02-20 11:17:00,
2013-02-20 04:33:00,6.2,-3.0,30.04,NNE,22,0.0,-999.0,67,-99.99,,,0.00,weatherlink.com 1.10,2013-02-20 11:33:00,
2013-02-20 04:47:00,6.0,-3.0,30.04,NNE,22,1.0,-999.0,67,-99.99,,,0.00,weatherlink.com 1.10,2013-02-20 11:47:00,
2013-02-20 05:03:00,5.7,-3.0,30.04,NNE,22,0.0,-999.0,66,-99.99,,,0.00,weatherlink.com 1.10,2013-02-20 12:03:00,
2013-02-20 05:18:00,6.1,-2.0,30.04,NNE,22,0.0,-999.0,69,-99.99,,,0.00,weatherlink.com 1.10,2013-02-20 12:18:00,
2013-02-20 05:33:00,6.3,-2.0,30.03,NNE,22,0.0,-999.0,68,-99.99,,,0.00,weatherlink.com 1.10,2013-02-20 12:33:00,
2013-02-20 05:48:00,6.2,-3.0,30.03,NNE,22,0.0,-999.0,67,-99.99,,,0.00,weatherlink.com 1.10,2013-02-20 12:48:00,
2013-02-20 06:03:00,6.1,-2.0,30.02,NNE,22,0.0,-999.0,68,-99.99,,,0.00,weatherlink.com 1.10,2013-02-20 13:03:00,
2013-02-20 06:18:00,6.2,-2.0,30.01,NNE,22,0.0,-999.0,68,-99.99,,,0.00,weatherlink.com 1.10,2013-02-20 13:18:00,
2013-02-20 06:33:00,6.3,-2.0,30.01,NNE,22,0.0,-999.0,68,-99.99,,,0.00,weatherlink.com 1.10,2013-02-20 13:33:00,
2013-02-20 06:48:00,6.8,-2.0,30.00,NNE,22,0.0,-999.0,67,-99.99,,,0.00,weatherlink.com 1.10,2013-02-20 13:48:00,
2013-02-20 07:18:00,7.3,-1.0,30.00,NNE,22,0.0,-999.0,68,-99.99,,,0.00,weatherlink.com 1.10,2013-02-20 14:18:00,
2013-02-20 07:33:00,7.6,-1.0,30.00,NNE,22,0.0,-999.0,68,-99.99,,,0.00,weatherlink.com 1.10,2013-02-20 14:33:00,
2013-02-20 07:48:00,8.4,0.0,29.99,NNE,22,0.0,-999.0,68,-99.99,,,0.00,weatherlink.com 1.10,2013-02-20 14:48:00,
2013-02-20 08:03:00,9.8,1.0,29.98,NNE,22,0.0,-999.0,66,-99.99,,,0.00,weatherlink.com 1.10,2013-02-20 15:03:00,
2013-02-20 08:18:00,11.4,2.0,29.98,NNE,22,0.0,-999.0,65,-99.99,,,0.00,weatherlink.com 1.10,2013-02-20 15:18:00,
2013-02-20 08:33:00,13.2,3.0,29.98,NNE,22,0.0,-999.0,64,-99.99,,,0.00,weatherlink.com 1.10,2013-02-20 15:33:00,
2013-02-20 08:48:00,15.3,4.0,29.97,NNE,22,0.0,-999.0,62,-99.99,,,0.00,weatherlink.com 1.10,2013-02-20 15:48:00,
2013-02-20 09:03:00,17.2,5.0,29.96,NNE,22,0.0,-999.0,59,-99.99,,,0.00,weatherlink.com 1.10,2013-02-20 16:03:00,
2013-02-20 09:18:00,18.8,5.0,29.95,NNE,22,0.0,-999.0,56,-99.99,,,0.00,weatherlink.com 1.10,2013-02-20 16:18:00,
2013-02-20 09:33:00,20.5,6.0,29.93,NNE,22,0.0,-999.0,54,-99.99,,,0.00,weatherlink.com 1.10,2013-02-20 16:33:00,
2013-02-20 09:48:00,21.1,7.0,29.93,NW,306,1.0,-999.0,54,-99.99,,,0.00,weatherlink.com 1.10,2013-02-20 16:48:00,
2013-02-20 10:03:00,21.9,7.0,29.92,NW,305,0.0,-999.0,52,-99.99,,,0.00,weatherlink.com 1.10,2013-02-20 17:03:00,
2013-02-20 10:17:00,23.1,7.0,29.91,WNW,292,2.0,-999.0,50,-99.99,,,0.00,weatherlink.com 1.10,2013-02-20 17:17:00,
2013-02-20 10:32:00,23.6,7.0,29.90,WNW,290,0.0,-999.0,49,-99.99,,,0.00,weatherlink.com 1.10,2013-02-20 17:32:00,
2013-02-20 10:48:00,24.4,8.0,29.90,WNW,290,2.0,-999.0,49,-99.99,,,0.00,weatherlink.com 1.10,2013-02-20 17:48:00,
2013-02-20 11:02:00,25.9,8.0,29.89,WNW,289,2.0,-999.0,47,-99.99,,,0.00,weatherlink.com 1.10,2013-02-20 18:02:00,
2013-02-20 11:17:00,26.3,8.0,29.88,North,10,0.0,-999.0,46,-99.99,,,0.00,weatherlink.com 1.10,2013-02-20 18:17:00,
2013-02-20 11:32:00,26.8,8.0,29.87,WNW,296,0.0,-999.0,45,-99.99,,,0.00,weatherlink.com 1.10,2013-02-20 18:32:00,
2013-02-20 11:47:00,26.6,9.0,29.86,SW,229,0.0,-999.0,48,-99.99,,,0.00,weatherlink.com 1.10,2013-02-20 18:47:00,
2013-02-20 12:02:00,27.4,9.0,29.84,North,355,0.0,-999.0,46,-99.99,,,0.00,weatherlink.com 1.10,2013-02-20 19:02:00,
2013-02-20 12:17:00,27.9,9.0,29.83,WNW,294,0.0,-999.0,45,-99.99,,,0.00,weatherlink.com 1.10,2013-02-20 19:17:00,
2013-02-20 12:32:00,27.4,9.0,29.83,WNW,290,1.0,-999.0,46,-99.99,,,0.00,weatherlink.com 1.10,2013-02-20 19:32:00,
2013-02-20 12:47:00,27.5,9.0,29.81,WNW,287,0.0,-999.0,46,-99.99,,,0.00,weatherlink.com 1.10,2013-02-20 19:47:00,
2013-02-20 13:02:00,26.7,9.0,29.80,WSW,242,1.0,-999.0,47,-99.99,,,0.00,weatherlink.com 1.10,2013-02-20 20:02:00,
2013-02-20 13:17:00,26.0,9.0,29.79,SE,135,1.0,-999.0,49,-99.99,,,0.00,weatherlink.com 1.10,2013-02-20 20:17:00,
2013-02-20 13:33:00,25.3,9.0,29.78,East,88,1.0,-999.0,51,-99.99,,,0.00,weatherlink.com 1.10,2013-02-20 20:33:00,
2013-02-20 13:48:00,24.6,9.0,29.77,East,85,2.0,-999.0,52,-99.99,,,0.00,weatherlink.com 1.10,2013-02-20 20:48:00,
2013-02-20 14:03:00,24.4,9.0,29.76,East,83,0.0,-999.0,53,-99.99,,,0.00,weatherlink.com 1.10,2013-02-20 21:03:00,
2013-02-20 14:18:00,24.5,9.0,29.76,NNE,19,0.0,-999.0,52,-99.99,,,0.00,weatherlink.com 1.10,2013-02-20 21:18:00,
2013-02-20 14:33:00,24.5,9.0,29.76,East,94,0.0,-999.0,52,-99.99,,,0.00,weatherlink.com 1.10,2013-02-20 21:33:00,
2013-02-20 14:48:00,24.0,13.0,29.77,ENE,60,0.0,-999.0,62,-99.99,,,0.00,weatherlink.com 1.10,2013-02-20 21:48:00,
2013-02-20 15:03:00,22.3,14.0,29.77,ENE,59,1.0,-999.0,70,-99.99,,,0.00,weatherlink.com 1.10,2013-02-20 22:03:00,
2013-02-20 15:18:00,21.1,15.0,29.76,ENE,59,0.0,-999.0,76,-99.99,,,0.00,weatherlink.com 1.10,2013-02-20 22:18:00,
2013-02-20 15:33:00,20.3,15.0,29.77,ENE,59,0.0,-999.0,79,-99.99,,,0.00,weatherlink.com 1.10,2013-02-20 22:33:00,
2013-02-20 15:48:00,19.8,15.0,29.77,ENE,59,0.0,-999.0,81,-99.99,,,0.00,weatherlink.com 1.10,2013-02-20 22:48:00,
2013-02-20 16:03:00,19.7,15.0,29.77,ENE,59,0.0,-999.0,82,-99.99,,,0.00,weatherlink.com 1.10,2013-02-20 23:03:00,
2013-02-20 16:18:00,19.7,15.0,29.77,ENE,59,0.0,-999.0,83,-99.99,,,0.00,weatherlink.com 1.10,2013-02-20 23:18:00,
2013-02-20 16:33:00,19.7,15.0,29.77,NE,34,0.0,-999.0,82,-99.99,,,0.00,weatherlink.com 1.10,2013-02-20 23:33:00,
2013-02-20 16:48:00,19.7,15.0,29.78,NE,34,1.0,-999.0,83,-99.99,,,0.00,weatherlink.com 1.10,2013-02-20 23:48:00,
2013-02-20 17:18:00,19.0,15.0,29.78,WSW,250,0.0,-999.0,83,-99.99,,,0.00,weatherlink.com 1.10,2013-02-21 00:18:00,
2013-02-20 17:33:00,18.8,15.0,29.78,SW,232,0.0,-999.0,83,-99.99,,,0.00,weatherlink.com 1.10,2013-02-21 00:33:00,
2013-02-20 17:48:00,18.6,14.0,29.78,SW,232,0.0,-999.0,83,-99.99,,,0.00,weatherlink.com 1.10,2013-02-21 00:48:00,
2013-02-20 18:07:00,18.4,14.0,29.78,SW,232,0.0,-999.0,84,-99.99,,,0.00,weatherlink.com 1.10,2013-02-21 01:07:00,
2013-02-20 18:18:00,18.4,14.0,29.78,SW,232,0.0,-999.0,84,-99.99,,,0.00,weatherlink.com 1.10,2013-02-21 01:18:00,
2013-02-20 18:33:00,18.2,14.0,29.79,SW,232,0.0,-999.0,84,-99.99,,,0.00,weatherlink.com 1.10,2013-02-21 01:33:00,
2013-02-20 18:48:00,18.1,14.0,29.79,SW,232,0.0,-999.0,85,-99.99,,,0.00,weatherlink.com 1.10,2013-02-21 01:48:00,
2013-02-20 19:03:00,18.0,14.0,29.79,SW,232,0.0,-999.0,85,-99.99,,,0.00,weatherlink.com 1.10,2013-02-21 02:03:00,
2013-02-20 19:18:00,17.9,14.0,29.79,SW,232,0.0,-999.0,85,-99.99,,,0.00,weatherlink.com 1.10,2013-02-21 02:18:00,
2013-02-20 19:33:00,17.9,14.0,29.79,SW,232,0.0,-999.0,85,-99.99,,,0.00,weatherlink.com 1.10,2013-02-21 02:33:00,
2013-02-20 19:48:00,17.8,14.0,29.79,SW,232,0.0,-999.0,85,-99.99,,,0.00,weatherlink.com 1.10,2013-02-21 02:48:00,
2013-02-20 20:03:00,17.2,13.0,29.79,SW,232,0.0,-999.0,83,-99.99,,,0.00,weatherlink.com 1.10,2013-02-21 03:03:00,
2013-02-20 20:18:00,16.6,13.0,29.80,SW,234,0.0,-999.0,84,-99.99,,,0.00,weatherlink.com 1.10,2013-02-21 03:18:00,
2013-02-20 20:33:00,16.2,12.0,29.80,SW,234,0.0,-999.0,83,-99.99,,,0.00,weatherlink.com 1.10,2013-02-21 03:33:00,
2013-02-20 20:48:00,15.7,11.0,29.81,SW,234,0.0,-999.0,83,-99.99,,,0.00,weatherlink.com 1.10,2013-02-21 03:48:00,
2013-02-20 21:03:00,15.4,11.0,29.81,SW,234,0.0,-999.0,83,-99.99,,,0.00,weatherlink.com 1.10,2013-02-21 04:03:00,
2013-02-20 21:19:00,15.2,11.0,29.82,SW,234,0.0,-999.0,83,-99.99,,,0.00,weatherlink.com 1.10,2013-02-21 04:19:00,
2013-02-20 21:33:00,14.8,11.0,29.82,SW,233,0.0,-999.0,83,-99.99,,,0.00,weatherlink.com 1.10,2013-02-21 04:33:00,
2013-02-20 21:48:00,14.6,10.0,29.82,SW,234,0.0,-999.0,83,-99.99,,,0.00,weatherlink.com 1.10,2013-02-21 04:48:00,
2013-02-20 22:02:00,14.5,10.0,29.82,SW,234,0.0,-999.0,83,-99.99,,,0.00,weatherlink.com 1.10,2013-02-21 05:02:00,
2013-02-20 22:18:00,14.3,10.0,29.83,SW,234,0.0,-999.0,83,-99.99,,,0.00,weatherlink.com 1.10,2013-02-21 05:18:00,
2013-02-20 22:33:00,14.2,10.0,29.82,SW,234,0.0,-999.0,83,-99.99,,,0.00,weatherlink.com 1.10,2013-02-21 05:33:00,
2013-02-20 22:48:00,14.1,10.0,29.82,SW,234,0.0,-999.0,83,-99.99,,,0.00,weatherlink.com 1.10,2013-02-21 05:48:00,
2013-02-20 23:03:00,14.0,10.0,29.82,SW,234,0.0,-999.0,84,-99.99,,,0.00,weatherlink.com 1.10,2013-02-21 06:03:00,
2013-02-20 23:18:00,13.9,10.0,29.81,SW,234,0.0,-999.0,84,-99.99,,,0.00,weatherlink.com 1.10,2013-02-21 06:18:00,
2013-02-20 23:33:00,13.7,10.0,29.81,SW,234,0.0,-999.0,84,-99.99,,,0.00,weatherlink.com 1.10,2013-02-21 06:33:00,
2013-02-20 23:48:00,13.7,10.0,29.81,SW,234,0.0,-999.0,84,-99.99,,,0.00,weatherlink.com 1.10,2013-02-21 06:48:00,